createdAt,value
2022-09-28T00:00:55.145Z,2.90
2022-09-28T00:03:31.284Z,5.75
2022-09-28T00:06:06.940Z,5.55
2022-09-28T00:08:35.635Z,5.63
2022-09-28T00:11:04.078Z,4.97
2022-09-28T00:13:33.236Z,2.30
2022-09-28T00:16:01.856Z,2.45
2022-09-28T00:18:30.103Z,1.92
2022-09-28T00:21:01.933Z,2.30
2022-09-28T00:25:57.383Z,2.10
2022-09-28T00:28:25.012Z,1.83
2022-09-28T00:30:56.498Z,2.20
2022-09-28T00:33:24.597Z,2.08
2022-09-28T00:35:56.078Z,2.70
2022-09-28T00:38:27.399Z,2.25
2022-09-28T00:40:56.019Z,2.70
2022-09-28T00:43:24.260Z,2.03
2022-09-28T00:45:58.210Z,2.35
2022-09-28T00:48:28.440Z,2.75
2022-09-28T00:50:56.238Z,2.80
2022-09-28T00:53:30.765Z,2.50
2022-09-28T00:56:01.237Z,2.75
2022-09-28T00:58:30.596Z,3.00
2022-09-28T01:00:59.797Z,2.30
2022-09-28T01:03:29.080Z,2.90
2022-09-28T01:05:58.823Z,2.80
2022-09-28T01:08:28.078Z,2.88
2022-09-28T01:10:58.145Z,3.20
2022-09-28T01:13:25.817Z,3.25
2022-09-28T01:16:08.808Z,3.30
2022-09-28T01:18:45.240Z,3.17
2022-09-28T01:21:20.255Z,4.07
2022-09-28T01:24:05.349Z,3.92
2022-09-28T01:26:48.705Z,3.40
2022-09-28T01:29:28.885Z,2.42
2022-09-28T01:32:08.616Z,2.45
2022-09-28T01:34:55.504Z,2.40
2022-09-28T01:37:27.757Z,1.80
2022-09-28T01:39:57.683Z,2.40
2022-09-28T01:42:28.029Z,2.00
2022-09-28T01:44:57.599Z,2.15
2022-09-28T01:47:27.816Z,2.28
2022-09-28T01:50:05.756Z,1.90
2022-09-28T01:52:41.044Z,1.98
2022-09-28T01:55:24.847Z,2.10
2022-09-28T01:57:55.875Z,2.05
2022-09-28T02:00:25.117Z,1.70
2022-09-28T02:03:12.475Z,1.75
2022-09-28T02:05:50.073Z,2.40
2022-09-28T02:08:32.462Z,1.80
2022-09-28T02:11:04.317Z,1.88
2022-09-28T02:13:31.951Z,1.60
2022-09-28T02:16:03.668Z,1.67
2022-09-28T02:18:32.216Z,1.30
2022-09-28T02:21:11.732Z,1.75
2022-09-28T02:23:42.601Z,1.50
2022-09-28T02:26:13.101Z,1.77
2022-09-28T02:28:41.410Z,1.60
2022-09-28T02:31:09.124Z,1.30
2022-09-28T02:33:39.056Z,1.75
2022-09-28T02:36:07.564Z,2.13
2022-09-28T02:38:39.123Z,1.80
2022-09-28T02:41:12.267Z,1.70
2022-09-28T02:43:40.024Z,1.20
2022-09-28T02:46:10.945Z,1.55
2022-09-28T02:49:10.605Z,1.10
2022-09-28T02:51:41.934Z,1.92
2022-09-28T02:54:22.288Z,1.58
2022-09-28T02:56:56.633Z,2.63
2022-09-28T02:59:34.939Z,2.47
2022-09-28T03:02:12.049Z,2.00
2022-09-28T03:04:54.969Z,1.30
2022-09-28T03:07:30.492Z,1.85
2022-09-28T03:10:04.416Z,2.25
2022-09-28T03:12:33.274Z,1.23
2022-09-28T03:15:10.711Z,1.20
2022-09-28T03:17:38.743Z,1.83
2022-09-28T03:20:06.985Z,1.50
2022-09-28T03:22:34.858Z,1.30
2022-09-28T03:25:02.494Z,1.40
2022-09-28T03:27:30.348Z,1.80
2022-09-28T03:29:58.009Z,1.63
2022-09-28T03:32:25.629Z,1.27
2022-09-28T03:34:53.515Z,1.20
2022-09-28T03:37:21.126Z,1.45
2022-09-28T03:39:48.849Z,1.48
2022-09-28T03:42:16.745Z,1.83
2022-09-28T03:44:48.808Z,1.60
2022-09-28T03:47:18.058Z,1.50
2022-09-28T03:49:46.340Z,1.40
2022-09-28T03:52:15.572Z,1.30
2022-09-28T03:54:48.333Z,1.80
2022-09-28T03:57:17.388Z,15.43
2022-09-28T03:59:45.343Z,9.80
2022-09-28T04:02:13.024Z,12.13
2022-09-28T04:04:40.924Z,10.85
2022-09-28T04:07:08.568Z,12.98
2022-09-28T04:09:36.260Z,7.78
2022-09-28T04:12:04.725Z,6.60
2022-09-28T04:14:33.841Z,4.22
2022-09-28T04:17:01.769Z,2.50
2022-09-28T04:19:32.274Z,1.70
2022-09-28T04:22:20.165Z,2.10
2022-09-28T04:24:48.068Z,1.77
2022-09-28T04:27:34.210Z,3.50
2022-09-28T04:30:03.217Z,3.15
2022-09-28T04:32:33.861Z,6.50
2022-09-28T04:35:01.678Z,5.45
2022-09-28T04:37:31.257Z,2.00
2022-09-28T04:39:59.067Z,2.10
2022-09-28T04:42:27.069Z,1.92
2022-09-28T04:44:57.114Z,2.53
2022-09-28T04:47:25.169Z,2.47
2022-09-28T04:50:13.666Z,2.35
2022-09-28T04:53:02.122Z,2.03
2022-09-28T04:55:32.474Z,1.90
2022-09-28T04:58:02.505Z,1.63
2022-09-28T05:00:33.129Z,1.60
2022-09-28T05:03:08.341Z,1.60
2022-09-28T05:06:06.975Z,1.30
2022-09-28T05:08:43.590Z,1.20
2022-09-28T05:11:12.424Z,1.30
2022-09-28T05:13:45.178Z,1.15
2022-09-28T05:16:20.427Z,1.05
2022-09-28T05:19:07.044Z,1.20
2022-09-28T05:21:35.021Z,1.27
2022-09-28T05:24:07.353Z,1.20
2022-09-28T05:26:36.942Z,1.15
2022-09-28T05:29:05.578Z,0.90
2022-09-28T05:31:51.220Z,0.80
2022-09-28T05:34:39.337Z,0.90
2022-09-28T05:37:07.336Z,0.80
2022-09-28T05:39:34.895Z,0.90
2022-09-28T05:42:02.475Z,0.50
2022-09-28T05:44:31.150Z,0.70
2022-09-28T05:46:58.735Z,0.75
2022-09-28T05:49:29.170Z,0.60
2022-09-28T05:51:57.204Z,0.90
2022-09-28T05:54:25.906Z,1.23
2022-09-28T05:56:53.550Z,1.00
2022-09-28T05:59:21.415Z,1.08
2022-09-28T06:01:49.135Z,0.80
2022-09-28T06:04:16.899Z,0.80
2022-09-28T06:06:45.726Z,0.50
2022-09-28T06:09:13.688Z,0.73
2022-09-28T06:11:50.747Z,1.10
2022-09-28T06:14:24.133Z,2.08
2022-09-28T06:16:52.357Z,2.50
2022-09-28T06:19:20.135Z,1.40
2022-09-28T06:22:26.693Z,0.70
2022-09-28T06:25:04.648Z,0.50
2022-09-28T06:27:33.826Z,0.20
2022-09-28T06:30:02.615Z,0.45
2022-09-28T06:32:31.781Z,0.40
2022-09-28T06:34:59.696Z,0.90
2022-09-28T06:37:28.881Z,0.38
2022-09-28T06:39:57.147Z,0.40
2022-09-28T06:42:25.286Z,0.40
2022-09-28T06:45:11.436Z,0.32
2022-09-28T06:48:05.312Z,0.50
2022-09-28T06:50:40.910Z,0.40
2022-09-28T06:53:14.946Z,1.30
2022-09-28T06:55:57.963Z,0.57
2022-09-28T06:58:27.557Z,0.82
2022-09-28T07:01:00.756Z,1.50
2022-09-28T07:03:31.123Z,1.13
2022-09-28T07:06:18.363Z,1.08
2022-09-28T07:09:26.721Z,1.83
2022-09-28T07:12:15.219Z,1.35
2022-09-28T07:14:57.321Z,0.90
2022-09-28T07:17:27.356Z,0.40
2022-09-28T07:20:00.221Z,1.25
2022-09-28T07:22:41.742Z,0.60
2022-09-28T07:25:14.237Z,0.73
2022-09-28T07:28:00.332Z,0.20
2022-09-28T07:30:51.336Z,0.50
2022-09-28T07:33:38.073Z,0.40
2022-09-28T07:36:18.514Z,0.90
2022-09-28T07:38:46.252Z,0.93
2022-09-28T07:41:22.390Z,0.35
2022-09-28T07:43:52.076Z,0.50
2022-09-28T07:46:21.254Z,0.40
2022-09-28T07:48:56.531Z,0.30
2022-09-28T07:51:39.506Z,0.70
2022-09-28T07:54:19.054Z,0.60
2022-09-28T07:57:01.214Z,0.35
2022-09-28T07:59:37.298Z,0.47
2022-09-28T08:02:11.771Z,0.35
2022-09-28T08:04:40.336Z,0.70
2022-09-28T08:07:11.714Z,0.50
2022-09-28T08:09:40.636Z,0.60
2022-09-28T08:12:26.732Z,1.20
2022-09-28T08:15:18.780Z,0.90
2022-09-28T08:18:08.837Z,0.70
2022-09-28T08:20:55.895Z,1.83
2022-09-28T08:23:23.973Z,1.90
2022-09-28T08:25:54.234Z,2.10
2022-09-28T08:28:24.140Z,1.00
2022-09-28T08:30:55.162Z,1.15
2022-09-28T08:33:31.680Z,0.30
2022-09-28T08:36:18.228Z,0.60
2022-09-28T08:39:15.870Z,0.60
2022-09-28T08:42:03.272Z,1.65
2022-09-28T08:44:53.581Z,0.70
2022-09-28T08:48:09.432Z,0.38
2022-09-28T08:50:57.028Z,0.70
2022-09-28T08:53:40.534Z,0.45
2022-09-28T08:56:49.583Z,1.10
2022-09-28T08:59:23.186Z,0.98
2022-09-28T09:02:00.303Z,1.40
2022-09-28T09:07:28.738Z,0.60
2022-09-28T09:10:15.526Z,0.45
2022-09-28T09:12:44.185Z,0.65
2022-09-28T09:15:15.251Z,0.40
2022-09-28T09:17:48.935Z,0.65
2022-09-28T09:20:25.588Z,0.60
2022-09-28T09:23:02.095Z,0.50
2022-09-28T09:25:41.125Z,0.60
2022-09-28T09:28:32.724Z,0.90
2022-09-28T09:31:09.094Z,0.60
2022-09-28T09:33:48.737Z,0.50
2022-09-28T09:36:44.658Z,0.68
2022-09-28T09:39:36.865Z,0.60
2022-09-28T09:42:37.263Z,0.60
2022-09-28T09:45:23.146Z,0.68
2022-09-28T09:48:22.188Z,0.70
2022-09-28T09:51:11.236Z,0.50
2022-09-28T09:53:49.487Z,1.02
2022-09-28T09:56:21.449Z,0.80
2022-09-28T09:59:04.557Z,1.10
2022-09-28T10:01:39.453Z,1.48
2022-09-28T10:04:33.291Z,0.75
2022-09-28T10:07:06.465Z,0.90
2022-09-28T10:09:43.122Z,0.55
2022-09-28T10:12:33.896Z,1.20
2022-09-28T10:15:03.707Z,0.80
2022-09-28T10:20:38.344Z,1.20
2022-09-28T10:23:33.868Z,0.93
2022-09-28T10:28:49.910Z,1.25
2022-09-28T10:31:44.230Z,1.15
2022-09-28T10:34:25.522Z,0.80
2022-09-28T10:36:59.943Z,0.60
2022-09-28T10:39:44.800Z,0.82
2022-09-28T10:42:13.735Z,1.10
2022-09-28T10:44:50.587Z,1.15
2022-09-28T10:47:35.637Z,1.20
2022-09-28T10:50:15.294Z,1.10
2022-09-28T10:52:46.244Z,1.25
2022-09-28T10:55:36.795Z,0.80
2022-09-28T10:58:24.208Z,0.60
2022-09-28T11:00:52.836Z,0.52
2022-09-28T11:03:25.627Z,0.60
2022-09-28T11:05:54.979Z,0.88
2022-09-28T11:08:30.614Z,0.82
2022-09-28T11:11:11.634Z,0.60
2022-09-28T11:13:40.830Z,0.85
2022-09-28T11:16:19.717Z,0.40
2022-09-28T11:18:47.674Z,0.90
2022-09-28T11:21:26.229Z,0.50
2022-09-28T11:24:07.296Z,0.35
2022-09-28T11:26:41.591Z,0.30
2022-09-28T11:29:22.010Z,0.40
2022-09-28T11:32:08.456Z,0.50
2022-09-28T11:35:00.259Z,0.70
2022-09-28T11:37:35.316Z,0.47
2022-09-28T11:40:22.172Z,0.38
2022-09-28T11:42:50.117Z,0.50
2022-09-28T11:45:36.843Z,0.60
2022-09-28T11:48:06.505Z,0.30
2022-09-28T11:50:50.944Z,0.60
2022-09-28T11:53:18.741Z,0.40
2022-09-28T11:55:51.112Z,0.40
2022-09-28T11:58:24.735Z,0.57
2022-09-28T12:01:04.076Z,0.65
2022-09-28T12:03:49.004Z,0.80
2022-09-28T12:06:20.371Z,0.90
2022-09-28T12:08:53.708Z,0.60
2022-09-28T12:11:26.140Z,0.60
2022-09-28T12:14:35.151Z,0.50
2022-09-28T12:17:22.186Z,0.40
2022-09-28T12:19:55.956Z,0.38
2022-09-28T12:22:24.978Z,0.50
2022-09-28T12:24:55.093Z,0.52
2022-09-28T12:27:31.065Z,0.60
2022-09-28T12:30:05.358Z,0.60
2022-09-28T12:32:42.324Z,0.40
2022-09-28T12:35:15.003Z,0.85
2022-09-28T12:38:01.054Z,0.75
2022-09-28T12:40:32.270Z,0.85
2022-09-28T12:43:06.127Z,1.42
2022-09-28T12:45:59.777Z,0.63
2022-09-28T12:48:57.212Z,0.40
2022-09-28T12:51:34.432Z,0.40
2022-09-28T12:54:02.014Z,0.60
2022-09-28T12:56:37.137Z,0.60
2022-09-28T12:59:21.568Z,0.40
2022-09-28T13:01:49.395Z,0.50
2022-09-28T13:04:23.367Z,0.52
2022-09-28T13:07:00.727Z,0.70
2022-09-28T13:09:31.446Z,0.50
2022-09-28T13:12:05.149Z,0.52
2022-09-28T13:14:53.195Z,0.60
2022-09-28T13:17:39.147Z,0.50
2022-09-28T13:20:07.081Z,0.40
2022-09-28T13:22:56.413Z,0.60
2022-09-28T13:25:26.732Z,0.88
2022-09-28T13:27:57.984Z,0.60
2022-09-28T13:32:56.504Z,0.40
2022-09-28T13:35:24.466Z,0.40
2022-09-28T13:38:11.054Z,0.57
2022-09-28T13:40:58.412Z,1.00
2022-09-28T13:43:32.202Z,0.70
2022-09-28T13:46:03.614Z,0.70
2022-09-28T13:51:08.630Z,0.63
2022-09-28T13:53:42.232Z,0.38
2022-09-28T13:56:19.027Z,0.55
2022-09-28T13:58:59.125Z,0.50
2022-09-28T14:01:29.938Z,0.50
2022-09-28T14:04:13.060Z,0.50
2022-09-28T14:06:51.413Z,0.50
2022-09-28T14:09:25.730Z,1.10
2022-09-28T14:11:57.699Z,0.82
2022-09-28T14:14:25.500Z,0.40
2022-09-28T14:17:01.094Z,0.82
2022-09-28T14:19:31.668Z,0.70
2022-09-28T14:22:08.189Z,1.08
2022-09-28T14:24:48.559Z,1.27
2022-09-28T14:27:35.003Z,0.68
2022-09-28T14:30:07.890Z,0.88
2022-09-28T14:32:37.641Z,0.63
2022-09-28T14:35:07.424Z,0.90
2022-09-28T14:37:55.071Z,0.93
2022-09-28T14:40:49.403Z,1.20
2022-09-28T14:43:26.753Z,0.90
2022-09-28T14:46:17.183Z,1.10
2022-09-28T14:48:44.926Z,1.50
2022-09-28T14:51:40.080Z,0.85
2022-09-28T14:54:13.292Z,0.60
2022-09-28T14:56:46.047Z,0.77
2022-09-28T14:59:15.105Z,0.80
2022-09-28T15:01:44.654Z,0.80
2022-09-28T15:04:13.549Z,0.88
2022-09-28T15:06:48.666Z,1.17
2022-09-28T15:09:32.935Z,0.93
2022-09-28T15:12:07.695Z,1.10
2022-09-28T15:14:41.388Z,1.10
2022-09-28T15:17:10.381Z,1.00
2022-09-28T15:19:54.284Z,1.95
2022-09-28T15:22:22.651Z,1.02
2022-09-28T15:25:02.422Z,1.17
2022-09-28T15:27:36.492Z,1.50
2022-09-28T15:32:32.437Z,0.80
2022-09-28T15:35:10.308Z,0.77
2022-09-28T15:37:40.686Z,0.90
2022-09-28T15:40:13.013Z,1.10
2022-09-28T15:42:40.922Z,1.00
2022-09-28T15:45:14.609Z,1.00
2022-09-28T15:47:44.869Z,1.00
2022-09-28T15:50:27.163Z,1.02
2022-09-28T15:52:56.889Z,0.95
2022-09-28T15:55:32.458Z,1.90
2022-09-28T15:58:07.530Z,1.35
2022-09-28T16:00:35.563Z,1.10
2022-09-28T16:03:23.594Z,1.30
2022-09-28T16:05:52.587Z,1.42
2022-09-28T16:08:24.950Z,2.60
2022-09-28T16:10:54.659Z,2.30
2022-09-28T16:13:23.929Z,1.35
2022-09-28T16:15:58.071Z,1.10
2022-09-28T16:18:27.266Z,1.98
2022-09-28T16:21:03.195Z,1.33
2022-09-28T16:23:33.259Z,1.85
2022-09-28T16:26:21.813Z,4.22
2022-09-28T16:28:51.884Z,15.27
2022-09-28T16:31:20.310Z,1.92
2022-09-28T16:33:55.119Z,14.15
2022-09-28T16:36:23.783Z,1.33
2022-09-28T16:38:53.632Z,1.63
2022-09-28T16:41:23.480Z,2.42
2022-09-28T16:43:55.034Z,1.65
2022-09-28T16:46:25.627Z,1.50
2022-09-28T16:48:55.640Z,3.85
2022-09-28T16:51:24.234Z,1.50
2022-09-28T16:54:11.177Z,1.58
2022-09-28T16:56:39.193Z,2.22
2022-09-28T16:59:13.105Z,2.03
2022-09-28T17:01:43.862Z,1.27
2022-09-28T17:04:12.105Z,1.50
2022-09-28T17:06:39.858Z,1.40
2022-09-28T17:09:09.557Z,1.20
2022-09-28T17:11:37.384Z,1.08
2022-09-28T17:14:05.161Z,1.50
2022-09-28T17:17:06.124Z,1.33
2022-09-28T17:19:25.826Z,1.10
2022-09-28T17:24:21.787Z,1.40
2022-09-28T17:26:52.644Z,0.90
2022-09-28T17:29:20.485Z,1.63
2022-09-28T17:31:48.823Z,1.70
2022-09-28T17:34:16.931Z,1.75
2022-09-28T17:36:45.484Z,1.20
2022-09-28T17:39:18.498Z,1.00
2022-09-28T17:41:46.740Z,1.00
2022-09-28T17:44:15.981Z,0.80
2022-09-28T17:46:47.376Z,1.67
2022-09-28T17:49:15.583Z,1.35
2022-09-28T17:51:43.309Z,1.30
2022-09-28T17:54:12.893Z,1.85
2022-09-28T17:56:42.497Z,1.52
2022-09-28T17:59:13.471Z,1.33
2022-09-28T18:01:41.596Z,1.65
2022-09-28T18:04:15.904Z,1.48
2022-09-28T18:06:56.321Z,1.33
2022-09-28T18:09:25.534Z,1.58
2022-09-28T18:11:59.495Z,1.33
2022-09-28T18:14:28.444Z,1.48
2022-09-28T18:16:56.266Z,2.05
2022-09-28T18:19:25.705Z,1.65
2022-09-28T18:21:58.288Z,1.60
2022-09-28T18:24:26.100Z,2.08
2022-09-28T18:26:53.905Z,1.40
2022-09-28T18:29:22.859Z,1.33
2022-09-28T18:31:51.247Z,1.38
2022-09-28T18:34:19.161Z,1.08
2022-09-28T18:36:47.342Z,0.90
2022-09-28T18:39:15.033Z,1.30
2022-09-28T18:41:42.841Z,1.05
2022-09-28T18:44:10.929Z,1.10
2022-09-28T18:46:39.439Z,1.20
2022-09-28T18:49:07.347Z,1.10
2022-09-28T18:51:35.349Z,1.20
2022-09-28T18:54:07.250Z,1.40
2022-09-28T18:56:37.366Z,1.58
2022-09-28T18:59:09.970Z,1.42
2022-09-28T19:01:41.620Z,1.17
2022-09-28T19:04:10.344Z,1.23
2022-09-28T19:06:40.727Z,1.58
2022-09-28T19:09:08.845Z,1.60
2022-09-28T19:11:37.032Z,1.45
2022-09-28T19:14:04.673Z,1.40
2022-09-28T19:16:34.084Z,1.00
2022-09-28T19:19:03.172Z,0.80
2022-09-28T19:21:31.524Z,1.55
2022-09-28T19:24:03.238Z,1.45
2022-09-28T19:26:32.844Z,1.48
2022-09-28T19:29:01.112Z,1.73
2022-09-28T19:31:29.082Z,1.60
2022-09-28T19:33:57.054Z,1.60
2022-09-28T19:36:28.315Z,2.17
2022-09-28T19:38:57.327Z,1.48
2022-09-28T19:41:43.666Z,2.15
2022-09-28T19:44:12.058Z,1.42
2022-09-28T19:46:41.017Z,1.20
2022-09-28T19:49:13.034Z,1.30
2022-09-28T19:52:01.655Z,1.30
2022-09-28T19:54:36.203Z,1.30
2022-09-28T19:57:07.872Z,1.60
2022-09-28T19:59:36.769Z,1.60
2022-09-28T20:02:08.535Z,1.52
2022-09-28T20:04:36.419Z,1.42
2022-09-28T20:07:05.051Z,1.30
2022-09-28T20:09:33.620Z,2.03
2022-09-28T20:12:01.311Z,1.40
2022-09-28T20:14:33.065Z,1.23
2022-09-28T20:17:05.767Z,1.17
2022-09-28T20:19:33.652Z,1.20
2022-09-28T20:22:02.825Z,1.30
2022-09-28T20:24:31.993Z,1.02
2022-09-28T20:27:01.360Z,1.58
2022-09-28T20:29:31.666Z,1.23
2022-09-28T20:32:00.401Z,1.15
2022-09-28T20:34:28.204Z,1.55
2022-09-28T20:36:56.006Z,1.35
2022-09-28T20:39:23.910Z,2.63
2022-09-28T20:41:51.757Z,2.72
2022-09-28T20:44:20.036Z,2.60
2022-09-28T20:46:51.180Z,5.30
2022-09-28T20:49:18.828Z,8.50
2022-09-28T20:51:46.733Z,2.60
2022-09-28T20:54:14.622Z,4.43
2022-09-28T20:56:42.373Z,3.95
2022-09-28T20:59:13.209Z,3.95
2022-09-28T21:01:41.654Z,3.47
2022-09-28T21:04:10.309Z,4.97
2022-09-28T21:06:39.254Z,4.70
2022-09-28T21:09:07.922Z,3.70
2022-09-28T21:11:36.040Z,4.03
2022-09-28T21:14:06.296Z,3.00
2022-09-28T21:16:35.249Z,2.42
2022-09-28T21:19:03.309Z,2.50
2022-09-28T21:21:31.123Z,2.10
2022-09-28T21:23:59.402Z,2.20
2022-09-28T21:26:28.451Z,2.42
2022-09-28T21:29:15.249Z,2.38
2022-09-28T21:31:45.739Z,1.83
2022-09-28T21:34:14.349Z,2.15
2022-09-28T21:36:43.473Z,2.10
2022-09-28T21:39:11.338Z,2.08
2022-09-28T21:41:39.177Z,2.40
2022-09-28T21:44:07.215Z,1.85
2022-09-28T21:46:36.481Z,2.20
2022-09-28T21:49:07.412Z,1.70
2022-09-28T21:51:35.802Z,2.08
2022-09-28T21:54:03.635Z,1.60
2022-09-28T21:56:31.595Z,1.55
2022-09-28T21:58:59.957Z,1.63
2022-09-28T22:01:28.241Z,2.00
2022-09-28T22:03:56.612Z,1.98
2022-09-28T22:06:27.994Z,1.30
2022-09-28T22:11:24.618Z,1.77
2022-09-28T22:13:53.384Z,1.70
2022-09-28T22:16:22.463Z,2.00
2022-09-28T22:18:50.459Z,1.90
2022-09-28T22:21:18.201Z,2.35
2022-09-28T22:23:46.335Z,2.33
2022-09-28T22:26:20.189Z,2.35
2022-09-28T22:28:51.011Z,2.58
2022-09-28T22:31:19.637Z,2.25
2022-09-28T22:33:47.415Z,2.53
2022-09-28T22:36:17.154Z,2.95
2022-09-28T22:38:45.395Z,4.38
2022-09-28T22:41:15.839Z,1.98
2022-09-28T22:43:44.255Z,2.03
2022-09-28T22:46:13.366Z,2.35
2022-09-28T22:48:42.533Z,2.90
2022-09-28T22:51:10.436Z,2.97
2022-09-28T22:53:38.353Z,2.78
2022-09-28T22:56:06.702Z,3.20
2022-09-28T22:58:34.769Z,2.75
2022-09-28T23:01:06.596Z,2.53
2022-09-28T23:03:34.867Z,2.28
2022-09-28T23:06:02.725Z,3.00
2022-09-28T23:08:32.093Z,2.67
2022-09-28T23:11:00.198Z,2.40
2022-09-28T23:13:28.750Z,1.70
2022-09-28T23:16:01.064Z,1.90
2022-09-28T23:18:30.384Z,2.20
2022-09-28T23:20:59.697Z,2.70
2022-09-28T23:23:27.388Z,2.17
2022-09-28T23:25:55.190Z,1.98
2022-09-28T23:28:24.015Z,2.67
2022-09-28T23:30:53.147Z,2.75
2022-09-28T23:33:21.777Z,2.53
2022-09-28T23:35:49.793Z,2.83
2022-09-28T23:38:18.452Z,2.88
2022-09-28T23:40:47.073Z,6.15
2022-09-28T23:43:15.418Z,3.17
2022-09-28T23:45:44.028Z,3.20
2022-09-28T23:48:15.258Z,3.67
2022-09-28T23:50:43.783Z,4.10
2022-09-28T23:53:14.096Z,3.13
2022-09-28T23:55:45.144Z,3.00
2022-09-28T23:58:12.793Z,3.10
